KVBG/VBG METAR and TAF weather

Enter ICAO airport designator
Station Type Date Time Source
KVBG METAR 2019/08/19 01:58 UTC NOAA

KVBG 190158Z AUTO 32007KT 9SM CLR 18/14 A2992 RMK AO2 SLP134 T01780135 $


Station Type Date Time Source
KVBG Decoded METAR 2019/08/19 01:58 UTC NOAA

Station name not available
Aug 18, 2019 - 09:58 PM EDT / 2019.08.19 0158 UTC
Wind: from the NW (320 degrees) at 8 MPH (7 KT):0
Visibility: 9 mile(s):0
Sky conditions: clear
Temperature: 64.0 F (17.8 C)
Dew Point: 56.3 F (13.5 C)
Relative Humidity: 75%
Pressure (altimeter): 29.92 in. Hg (1013 hPa)
ob: KVBG 190158Z AUTO 32007KT 9SM CLR 18/14 A2992 RMK AO2 SLP134 T01780135
cycle: 2

Station Type Date Time Source
KVBG TAF 2019/08/16 23:21 UTC NOAA

TAF
AMD KVBG 162315Z 1623/1804 30012KT 8000 BR SCT002 BKN006 QNH2992INS
BECMG 1623/1624 30012KT 4800 BR SCT002 OVC004 QNH2991INS
BECMG 1702/1703 VRB06KT 0800 FG OVC002 QNH2990INS
BECMG 1709/1710 VRB06KT 0400 -DZ FG VV001 QNH2992INS
BECMG 1715/1716 VRB06KT 3200 BR BKN002 OVC004 QNH2994INS
BECMG 1718/1719 30012KT 9999 NSW SCT004 BKN006 BKN250 QNH2991INS
BECMG 1720/1721 30012G18KT 9999 SCT002 BKN004 BKN250 QNH2989INS TX18/1721Z TN12/1714Z LAST NO
AMDS AFT 1700 NEXT 1914

Example: see airport list